Flight Track Log - Related Links

Times and Time Zones

All times are in EDT time to prevent confusion due to time zone crossing. See the UAL4553 flight status page for this flight to view local times or setup timezone preferences in your user account.

Time Position Orientation Groundspeed Altitude Reporting Facility
EDT Latitude Longitude Course Direction KTS MPH feet Rate Location/Type
Tue 07:58:06 PM 29.9661 -95.3456 90° East 154 177 700  Level Houston Center
Tue 07:59:38 PM 29.9461 -95.2417 103° East 261 300 3,700 1,584 Climbing Houston Center
Tue 08:00:11 PM 29.9461 -95.2028 90° East 236 272 4,000 295 Climbing Houston Center
Tue 08:00:39 PM 29.9483 -95.1522 87° East 267 307 4,000 194 Level Houston Center
Tue 08:01:00 PM 29.9834 -94.8983 90° East  Level FlightAware Approximate
Tue 08:01:13 PM 29.9519 -95.1167 83° East 257 296 4,200  Level Houston Center
Tue 08:01:46 PM 29.9539 -95.0550 88° East 278 320 6,000 2,613 Climbing Houston Center
Tue 08:02:00 PM 29.9834 -94.7895 90° East  Level FlightAware Approximate
Tue 08:02:15 PM 29.9578 -95.0281 81° East 272 313 6,900  Level Houston Center
Tue 08:02:47 PM 29.9603 -94.9675 87° East 279 321 8,200 1,935 Climbing Houston Center
Tue 08:03:00 PM 29.9833 -94.6807 90° East  Level FlightAware Approximate
Tue 08:03:17 PM 29.9619 -94.9361 86° East 281 323 8,900  Level Houston Center
Tue 08:03:48 PM 29.9653 -94.8656 87° East 307 353 10,300 1,869 Climbing Houston Center
Tue 08:04:18 PM 29.9689 -94.8178 85° East 302 348 10,800 913 Climbing Houston Center
Tue 08:05:20 PM 29.9750 -94.7044 86° East 338 389 11,700 968 Climbing Houston Center
Tue 08:06:22 PM 29.9811 -94.5842 87° East 373 429 12,800 1,065 Climbing Houston Center
Tue 08:07:24 PM 29.9886 -94.4547 86° East 388 447 13,900 1,016 Climbing Houston Center
Tue 08:08:26 PM 29.9956 -94.3281 86° East 395 455 14,900 1,024 Climbing Houston Center
Tue 08:09:27 PM 30.0092 -94.1992 83° East 406 467 16,000 976 Climbing Houston Center
Tue 08:10:29 PM 30.0253 -94.0697 82° East 411 473 16,900 323 Climbing Houston Center
Tue 08:12:33 PM 30.0622 -93.7708 82° East 435 501 17,000 32 Climbing Houston Center
Tue 08:13:34 PM 30.0789 -93.6361 82° East 431 496 17,000  Level Houston Center
Tue 08:14:36 PM 30.0933 -93.5025 83° East 427 491 17,000  Level Houston Center
Tue 08:15:38 PM 30.1094 -93.3683 82° East 428 493 17,000 -532 Level Houston Center
Tue 08:16:40 PM 30.1256 -93.2347 82° East 426 490 15,900 -1,355 Descending Houston Center
Tue 08:17:42 PM 30.1431 -93.0778 83° East 414 476 14,200 -1,561 Descending Houston Center
Tue 08:18:43 PM 30.1478 -92.9478 88° East 408 470 12,700 -1,220 Descending Houston Center
Tue 08:19:45 PM 30.1544 -92.8217 86° East 400 460 11,700 -823 Descending Houston Center
Tue 08:20:47 PM 30.1603 -92.6953 87° East 396 456 11,000 -387 Descending Houston Center
Tue 08:21:49 PM 30.1678 -92.5697 86° East 396 456 10,900 -532 Descending Houston Center
Tue 08:22:51 PM 30.1719 -92.4633 87° East 346 398 9,900 -1,463 Descending Houston Center
Tue 08:23:52 PM 30.1786 -92.3483 86° East 308 354 7,900 -1,707 Descending Houston Center
Tue 08:24:54 PM 30.2189 -92.2775 57° Northeast 292 336 6,400 -1,645 Descending Houston Center
Tue 08:25:56 PM 30.2428 -92.2011 70° East 263 303 4,500 -1,984 Descending Houston Center
Tue 08:26:58 PM 30.2583 -92.1175 78° East 250 288 2,300 -2,129 Descending Houston Center
Tue 08:28:00 PM 30.2200 -92.0242 77° East  Level Estimated
Tue 08:35:00 PM 30.2000 -91.9833 77° East  Level FlightAware Approximate
Tue 08:36:00 PM 30.2050 -91.9877 77° East  Level Estimated
Tue 08:37:00 PM 30.2000 -91.9833 77° East  Level FlightAware Approximate
Tue 08:38:00 PM 30.2050 -91.9877 77° East  Level Estimated

Login

Don't have an account? Register now (free) for customized features, flight alerts, and more!